sensor_id;sensor_type;location;lat;lon;timestamp;P1;durP1;ratioP1;P2;durP2;ratioP2
77938;SDS011;67136;47.546;21.630;2024-03-02T00:02:21;24.55;;;12.02;;
77938;SDS011;67136;47.546;21.630;2024-03-02T00:05:24;23.37;;;12.03;;
77938;SDS011;67136;47.546;21.630;2024-03-02T00:08:27;24.97;;;12.57;;
77938;SDS011;67136;47.546;21.630;2024-03-02T00:11:34;31.73;;;12.52;;
77938;SDS011;67136;47.546;21.630;2024-03-02T00:14:39;30.75;;;12.93;;
77938;SDS011;67136;47.546;21.630;2024-03-02T00:17:42;26.42;;;11.93;;
77938;SDS011;67136;47.546;21.630;2024-03-02T00:20:44;24.80;;;12.20;;
77938;SDS011;67136;47.546;21.630;2024-03-02T00:23:48;22.47;;;11.70;;
77938;SDS011;67136;47.546;21.630;2024-03-02T00:26:54;23.15;;;11.50;;
77938;SDS011;67136;47.546;21.630;2024-03-02T00:29:56;24.55;;;11.95;;
77938;SDS011;67136;47.546;21.630;2024-03-02T00:32:59;29.83;;;12.75;;
77938;SDS011;67136;47.546;21.630;2024-03-02T00:36:02;29.67;;;12.53;;
77938;SDS011;67136;47.546;21.630;2024-03-02T00:39:06;39.57;;;12.80;;
77938;SDS011;67136;47.546;21.630;2024-03-02T00:42:10;26.73;;;12.48;;
77938;SDS011;67136;47.546;21.630;2024-03-02T00:45:14;23.17;;;12.07;;
77938;SDS011;67136;47.546;21.630;2024-03-02T00:48:19;32.58;;;13.82;;
77938;SDS011;67136;47.546;21.630;2024-03-02T00:51:22;26.03;;;12.70;;
77938;SDS011;67136;47.546;21.630;2024-03-02T00:54:26;25.53;;;12.57;;
77938;SDS011;67136;47.546;21.630;2024-03-02T00:57:31;28.10;;;13.38;;
77938;SDS011;67136;47.546;21.630;2024-03-02T01:00:36;24.35;;;12.55;;
77938;SDS011;67136;47.546;21.630;2024-03-02T01:03:39;27.33;;;13.05;;
77938;SDS011;67136;47.546;21.630;2024-03-02T01:06:44;27.13;;;13.03;;
77938;SDS011;67136;47.546;21.630;2024-03-02T01:09:46;28.57;;;13.03;;
77938;SDS011;67136;47.546;21.630;2024-03-02T01:12:49;28.17;;;13.02;;
77938;SDS011;67136;47.546;21.630;2024-03-02T01:15:52;30.75;;;13.57;;
77938;SDS011;67136;47.546;21.630;2024-03-02T01:18:56;32.22;;;13.02;;
77938;SDS011;67136;47.546;21.630;2024-03-02T01:21:58;27.10;;;12.30;;
77938;SDS011;67136;47.546;21.630;2024-03-02T01:25:01;24.77;;;12.33;;
77938;SDS011;67136;47.546;21.630;2024-03-02T01:28:04;28.60;;;12.98;;
77938;SDS011;67136;47.546;21.630;2024-03-02T01:31:07;28.25;;;13.13;;
77938;SDS011;67136;47.546;21.630;2024-03-02T01:34:10;24.92;;;12.80;;
77938;SDS011;67136;47.546;21.630;2024-03-02T01:37:14;31.27;;;12.57;;
77938;SDS011;67136;47.546;21.630;2024-03-02T01:40:17;25.50;;;12.40;;
77938;SDS011;67136;47.546;21.630;2024-03-02T01:43:20;25.20;;;12.85;;
77938;SDS011;67136;47.546;21.630;2024-03-02T01:46:22;26.27;;;12.77;;
77938;SDS011;67136;47.546;21.630;2024-03-02T01:49:25;23.60;;;11.65;;
77938;SDS011;67136;47.546;21.630;2024-03-02T01:52:27;26.87;;;12.13;;
77938;SDS011;67136;47.546;21.630;2024-03-02T01:55:32;22.37;;;12.40;;
77938;SDS011;67136;47.546;21.630;2024-03-02T01:58:37;23.58;;;11.75;;
77938;SDS011;67136;47.546;21.630;2024-03-02T02:01:40;28.02;;;11.73;;
77938;SDS011;67136;47.546;21.630;2024-03-02T02:04:43;26.73;;;11.82;;
77938;SDS011;67136;47.546;21.630;2024-03-02T02:07:45;24.53;;;11.40;;
77938;SDS011;67136;47.546;21.630;2024-03-02T02:10:48;23.00;;;11.87;;
77938;SDS011;67136;47.546;21.630;2024-03-02T02:13:51;28.80;;;11.70;;
77938;SDS011;67136;47.546;21.630;2024-03-02T02:16:54;25.27;;;11.68;;
77938;SDS011;67136;47.546;21.630;2024-03-02T02:19:56;23.15;;;10.85;;
77938;SDS011;67136;47.546;21.630;2024-03-02T02:23:03;18.33;;;10.20;;
77938;SDS011;67136;47.546;21.630;2024-03-02T02:26:07;27.83;;;10.00;;
77938;SDS011;67136;47.546;21.630;2024-03-02T02:29:10;25.10;;;11.07;;
77938;SDS011;67136;47.546;21.630;2024-03-02T02:32:13;23.95;;;10.15;;
77938;SDS011;67136;47.546;21.630;2024-03-02T02:35:16;24.05;;;10.82;;
77938;SDS011;67136;47.546;21.630;2024-03-02T02:38:18;21.77;;;10.43;;
77938;SDS011;67136;47.546;21.630;2024-03-02T02:41:22;25.13;;;10.30;;
77938;SDS011;67136;47.546;21.630;2024-03-02T02:44:24;21.25;;;9.50;;
77938;SDS011;67136;47.546;21.630;2024-03-02T02:47:27;23.23;;;10.15;;
77938;SDS011;67136;47.546;21.630;2024-03-02T02:50:31;19.65;;;9.30;;
77938;SDS011;67136;47.546;21.630;2024-03-02T02:53:34;23.90;;;9.83;;
77938;SDS011;67136;47.546;21.630;2024-03-02T02:56:37;23.13;;;10.23;;
77938;SDS011;67136;47.546;21.630;2024-03-02T02:59:40;21.20;;;9.82;;
77938;SDS011;67136;47.546;21.630;2024-03-02T03:02:43;22.02;;;9.35;;
77938;SDS011;67136;47.546;21.630;2024-03-02T03:05:52;19.75;;;9.65;;
77938;SDS011;67136;47.546;21.630;2024-03-02T03:08:54;23.03;;;9.37;;
77938;SDS011;67136;47.546;21.630;2024-03-02T03:11:57;26.87;;;9.97;;
77938;SDS011;67136;47.546;21.630;2024-03-02T03:15:00;21.12;;;9.68;;
77938;SDS011;67136;47.546;21.630;2024-03-02T03:18:04;24.92;;;9.88;;
77938;SDS011;67136;47.546;21.630;2024-03-02T03:21:07;26.02;;;9.75;;
77938;SDS011;67136;47.546;21.630;2024-03-02T03:24:09;20.50;;;9.73;;
77938;SDS011;67136;47.546;21.630;2024-03-02T03:27:12;27.70;;;10.00;;
77938;SDS011;67136;47.546;21.630;2024-03-02T03:30:18;23.30;;;10.88;;
77938;SDS011;67136;47.546;21.630;2024-03-02T03:33:20;24.55;;;10.77;;
77938;SDS011;67136;47.546;21.630;2024-03-02T03:36:23;23.15;;;10.88;;
77938;SDS011;67136;47.546;21.630;2024-03-02T03:39:28;21.63;;;10.40;;
77938;SDS011;67136;47.546;21.630;2024-03-02T03:42:34;28.63;;;10.60;;
77938;SDS011;67136;47.546;21.630;2024-03-02T03:45:36;28.00;;;11.02;;
77938;SDS011;67136;47.546;21.630;2024-03-02T03:48:39;22.65;;;11.10;;
77938;SDS011;67136;47.546;21.630;2024-03-02T03:51:44;20.75;;;10.80;;
77938;SDS011;67136;47.546;21.630;2024-03-02T03:54:47;20.23;;;10.03;;
77938;SDS011;67136;47.546;21.630;2024-03-02T03:57:49;24.07;;;10.10;;
77938;SDS011;67136;47.546;21.630;2024-03-02T04:00:57;20.27;;;9.98;;
77938;SDS011;67136;47.546;21.630;2024-03-02T04:04:00;25.45;;;11.77;;
77938;SDS011;67136;47.546;21.630;2024-03-02T04:07:05;24.25;;;11.27;;
77938;SDS011;67136;47.546;21.630;2024-03-02T04:10:08;24.27;;;11.53;;
77938;SDS011;67136;47.546;21.630;2024-03-02T04:13:12;27.37;;;11.77;;
77938;SDS011;67136;47.546;21.630;2024-03-02T04:16:15;22.65;;;11.68;;
77938;SDS011;67136;47.546;21.630;2024-03-02T04:19:17;21.73;;;11.30;;
77938;SDS011;67136;47.546;21.630;2024-03-02T04:22:20;19.87;;;11.43;;
77938;SDS011;67136;47.546;21.630;2024-03-02T04:25:26;21.93;;;11.67;;
77938;SDS011;67136;47.546;21.630;2024-03-02T04:28:29;21.53;;;11.37;;
77938;SDS011;67136;47.546;21.630;2024-03-02T04:31:32;20.33;;;10.95;;
77938;SDS011;67136;47.546;21.630;2024-03-02T04:34:35;18.08;;;11.05;;
77938;SDS011;67136;47.546;21.630;2024-03-02T04:37:37;23.67;;;10.13;;
77938;SDS011;67136;47.546;21.630;2024-03-02T04:40:40;18.57;;;9.70;;
77938;SDS011;67136;47.546;21.630;2024-03-02T04:43:43;22.10;;;10.27;;
77938;SDS011;67136;47.546;21.630;2024-03-02T04:46:46;17.35;;;9.32;;
77938;SDS011;67136;47.546;21.630;2024-03-02T04:49:48;19.05;;;10.45;;
77938;SDS011;67136;47.546;21.630;2024-03-02T04:52:54;24.80;;;9.80;;
77938;SDS011;67136;47.546;21.630;2024-03-02T04:55:56;21.90;;;9.37;;
77938;SDS011;67136;47.546;21.630;2024-03-02T04:59:19;17.20;;;9.20;;
77938;SDS011;67136;47.546;21.630;2024-03-02T05:02:22;18.62;;;8.65;;
77938;SDS011;67136;47.546;21.630;2024-03-02T05:05:25;15.13;;;8.25;;
77938;SDS011;67136;47.546;21.630;2024-03-02T05:08:28;16.52;;;8.02;;
77938;SDS011;67136;47.546;21.630;2024-03-02T05:11:31;16.30;;;7.97;;
77938;SDS011;67136;47.546;21.630;2024-03-02T05:14:39;15.90;;;8.20;;
77938;SDS011;67136;47.546;21.630;2024-03-02T05:17:45;15.63;;;8.48;;
77938;SDS011;67136;47.546;21.630;2024-03-02T05:20:48;18.67;;;8.38;;
77938;SDS011;67136;47.546;21.630;2024-03-02T05:23:51;14.68;;;8.18;;
77938;SDS011;67136;47.546;21.630;2024-03-02T05:26:56;12.80;;;7.57;;
77938;SDS011;67136;47.546;21.630;2024-03-02T05:29:59;16.23;;;7.83;;
77938;SDS011;67136;47.546;21.630;2024-03-02T05:33:01;13.00;;;7.50;;
77938;SDS011;67136;47.546;21.630;2024-03-02T05:36:04;14.70;;;7.80;;
77938;SDS011;67136;47.546;21.630;2024-03-02T05:39:07;16.48;;;8.05;;
77938;SDS011;67136;47.546;21.630;2024-03-02T05:42:11;16.27;;;8.07;;
77938;SDS011;67136;47.546;21.630;2024-03-02T05:45:19;16.87;;;8.27;;
77938;SDS011;67136;47.546;21.630;2024-03-02T05:48:21;15.10;;;7.90;;
77938;SDS011;67136;47.546;21.630;2024-03-02T05:51:24;14.75;;;7.18;;
77938;SDS011;67136;47.546;21.630;2024-03-02T05:54:27;17.17;;;8.77;;
77938;SDS011;67136;47.546;21.630;2024-03-02T05:57:29;17.43;;;8.07;;
77938;SDS011;67136;47.546;21.630;2024-03-02T06:00:52;17.10;;;7.93;;
77938;SDS011;67136;47.546;21.630;2024-03-02T06:03:55;14.27;;;7.50;;
77938;SDS011;67136;47.546;21.630;2024-03-02T06:06:58;18.37;;;8.65;;
77938;SDS011;67136;47.546;21.630;2024-03-02T06:10:01;17.75;;;8.63;;
77938;SDS011;67136;47.546;21.630;2024-03-02T06:13:03;14.20;;;8.40;;
77938;SDS011;67136;47.546;21.630;2024-03-02T06:16:06;16.43;;;8.70;;
77938;SDS011;67136;47.546;21.630;2024-03-02T06:19:10;19.20;;;9.20;;
77938;SDS011;67136;47.546;21.630;2024-03-02T06:22:13;17.05;;;9.40;;
77938;SDS011;67136;47.546;21.630;2024-03-02T06:25:15;15.23;;;8.32;;
77938;SDS011;67136;47.546;21.630;2024-03-02T06:28:20;17.07;;;8.97;;
77938;SDS011;67136;47.546;21.630;2024-03-02T06:31:22;21.27;;;9.90;;
77938;SDS011;67136;47.546;21.630;2024-03-02T06:34:25;19.23;;;8.60;;
77938;SDS011;67136;47.546;21.630;2024-03-02T06:37:28;15.90;;;8.35;;
77938;SDS011;67136;47.546;21.630;2024-03-02T06:40:31;18.10;;;8.43;;
77938;SDS011;67136;47.546;21.630;2024-03-02T06:43:33;13.57;;;8.83;;
77938;SDS011;67136;47.546;21.630;2024-03-02T06:46:36;14.73;;;8.23;;
77938;SDS011;67136;47.546;21.630;2024-03-02T06:49:38;14.18;;;8.50;;
77938;SDS011;67136;47.546;21.630;2024-03-02T06:52:41;17.12;;;7.95;;
77938;SDS011;67136;47.546;21.630;2024-03-02T06:55:44;20.05;;;8.65;;
77938;SDS011;67136;47.546;21.630;2024-03-02T06:58:49;12.07;;;6.97;;
77938;SDS011;67136;47.546;21.630;2024-03-02T07:01:52;14.50;;;7.60;;
77938;SDS011;67136;47.546;21.630;2024-03-02T07:04:54;18.37;;;8.90;;
77938;SDS011;67136;47.546;21.630;2024-03-02T07:07:57;12.45;;;7.68;;
77938;SDS011;67136;47.546;21.630;2024-03-02T07:11:00;16.25;;;7.72;;
77938;SDS011;67136;47.546;21.630;2024-03-02T07:14:03;12.10;;;6.93;;
77938;SDS011;67136;47.546;21.630;2024-03-02T07:17:06;15.90;;;7.47;;
77938;SDS011;67136;47.546;21.630;2024-03-02T07:20:08;15.05;;;7.55;;
77938;SDS011;67136;47.546;21.630;2024-03-02T07:23:12;15.32;;;6.87;;
77938;SDS011;67136;47.546;21.630;2024-03-02T07:26:14;14.55;;;7.80;;
77938;SDS011;67136;47.546;21.630;2024-03-02T07:29:23;14.80;;;7.40;;
77938;SDS011;67136;47.546;21.630;2024-03-02T07:32:26;12.47;;;6.73;;
77938;SDS011;67136;47.546;21.630;2024-03-02T07:35:28;14.95;;;7.68;;
77938;SDS011;67136;47.546;21.630;2024-03-02T07:38:33;15.27;;;7.43;;
77938;SDS011;67136;47.546;21.630;2024-03-02T07:41:37;15.40;;;7.20;;
77938;SDS011;67136;47.546;21.630;2024-03-02T07:44:40;13.13;;;6.47;;
77938;SDS011;67136;47.546;21.630;2024-03-02T07:47:43;12.07;;;6.70;;
77938;SDS011;67136;47.546;21.630;2024-03-02T07:50:46;13.00;;;6.45;;
77938;SDS011;67136;47.546;21.630;2024-03-02T07:53:49;12.05;;;6.25;;
77938;SDS011;67136;47.546;21.630;2024-03-02T07:56:52;14.05;;;7.03;;
77938;SDS011;67136;47.546;21.630;2024-03-02T07:59:55;10.43;;;6.17;;
77938;SDS011;67136;47.546;21.630;2024-03-02T08:02:57;13.37;;;6.47;;
77938;SDS011;67136;47.546;21.630;2024-03-02T08:06:00;11.35;;;6.55;;
77938;SDS011;67136;47.546;21.630;2024-03-02T08:09:03;11.50;;;6.60;;
77938;SDS011;67136;47.546;21.630;2024-03-02T08:12:11;13.48;;;6.62;;
77938;SDS011;67136;47.546;21.630;2024-03-02T08:15:14;10.43;;;6.03;;
77938;SDS011;67136;47.546;21.630;2024-03-02T08:18:16;11.47;;;6.57;;
77938;SDS011;67136;47.546;21.630;2024-03-02T08:21:22;11.38;;;5.97;;
77938;SDS011;67136;47.546;21.630;2024-03-02T08:24:25;9.70;;;5.65;;
77938;SDS011;67136;47.546;21.630;2024-03-02T08:27:27;9.07;;;5.80;;
77938;SDS011;67136;47.546;21.630;2024-03-02T08:30:30;14.03;;;7.30;;
77938;SDS011;67136;47.546;21.630;2024-03-02T08:33:33;15.87;;;7.10;;
77938;SDS011;67136;47.546;21.630;2024-03-02T08:36:39;11.57;;;6.40;;
77938;SDS011;67136;47.546;21.630;2024-03-02T08:39:42;20.95;;;6.60;;
77938;SDS011;67136;47.546;21.630;2024-03-02T08:42:46;12.02;;;6.47;;
77938;SDS011;67136;47.546;21.630;2024-03-02T08:45:49;12.07;;;7.10;;
77938;SDS011;67136;47.546;21.630;2024-03-02T08:48:53;9.73;;;6.30;;
77938;SDS011;67136;47.546;21.630;2024-03-02T08:51:56;17.27;;;7.70;;
77938;SDS011;67136;47.546;21.630;2024-03-02T08:54:58;13.45;;;7.57;;
77938;SDS011;67136;47.546;21.630;2024-03-02T08:58:01;12.45;;;7.35;;
77938;SDS011;67136;47.546;21.630;2024-03-02T09:01:07;13.17;;;7.07;;
77938;SDS011;67136;47.546;21.630;2024-03-02T09:04:10;13.57;;;6.30;;
77938;SDS011;67136;47.546;21.630;2024-03-02T09:07:13;10.48;;;6.50;;
77938;SDS011;67136;47.546;21.630;2024-03-02T09:10:15;11.48;;;6.57;;
77938;SDS011;67136;47.546;21.630;2024-03-02T09:13:19;13.00;;;6.47;;
77938;SDS011;67136;47.546;21.630;2024-03-02T09:16:22;15.07;;;6.50;;
77938;SDS011;67136;47.546;21.630;2024-03-02T09:19:25;12.97;;;6.67;;
77938;SDS011;67136;47.546;21.630;2024-03-02T09:22:28;12.80;;;6.93;;
77938;SDS011;67136;47.546;21.630;2024-03-02T09:25:30;10.18;;;6.35;;
77938;SDS011;67136;47.546;21.630;2024-03-02T09:28:33;11.50;;;6.15;;
77938;SDS011;67136;47.546;21.630;2024-03-02T09:31:42;10.40;;;6.33;;
77938;SDS011;67136;47.546;21.630;2024-03-02T09:34:45;14.50;;;6.50;;
77938;SDS011;67136;47.546;21.630;2024-03-02T09:37:50;9.43;;;5.80;;
77938;SDS011;67136;47.546;21.630;2024-03-02T09:40:53;11.00;;;6.25;;
77938;SDS011;67136;47.546;21.630;2024-03-02T09:43:55;12.07;;;5.70;;
77938;SDS011;67136;47.546;21.630;2024-03-02T09:46:59;9.10;;;5.73;;
77938;SDS011;67136;47.546;21.630;2024-03-02T09:50:02;9.73;;;6.20;;
77938;SDS011;67136;47.546;21.630;2024-03-02T09:53:06;12.23;;;6.18;;
77938;SDS011;67136;47.546;21.630;2024-03-02T09:56:10;11.65;;;6.25;;
77938;SDS011;67136;47.546;21.630;2024-03-02T09:59:12;11.45;;;6.07;;
77938;SDS011;67136;47.546;21.630;2024-03-02T10:02:18;9.67;;;4.37;;
77938;SDS011;67136;47.546;21.630;2024-03-02T10:05:25;9.90;;;5.17;;
77938;SDS011;67136;47.546;21.630;2024-03-02T10:08:42;9.75;;;5.70;;
77938;SDS011;67136;47.546;21.630;2024-03-02T10:11:46;7.35;;;4.90;;
77938;SDS011;67136;47.546;21.630;2024-03-02T10:14:48;8.43;;;4.45;;
77938;SDS011;67136;47.546;21.630;2024-03-02T10:17:53;11.53;;;4.67;;
77938;SDS011;67136;47.546;21.630;2024-03-02T10:20:56;7.97;;;4.87;;
77938;SDS011;67136;47.546;21.630;2024-03-02T10:24:19;10.90;;;5.00;;
77938;SDS011;67136;47.546;21.630;2024-03-02T10:27:25;10.32;;;4.80;;
77938;SDS011;67136;47.546;21.630;2024-03-02T10:30:30;9.82;;;4.85;;
77938;SDS011;67136;47.546;21.630;2024-03-02T10:33:32;9.17;;;4.53;;
77938;SDS011;67136;47.546;21.630;2024-03-02T10:36:35;8.83;;;4.33;;
77938;SDS011;67136;47.546;21.630;2024-03-02T10:39:39;7.60;;;4.50;;
77938;SDS011;67136;47.546;21.630;2024-03-02T10:42:43;6.60;;;4.20;;
77938;SDS011;67136;47.546;21.630;2024-03-02T10:45:47;6.93;;;4.03;;
77938;SDS011;67136;47.546;21.630;2024-03-02T10:48:55;8.13;;;5.00;;
77938;SDS011;67136;47.546;21.630;2024-03-02T10:52:01;6.10;;;3.90;;
77938;SDS011;67136;47.546;21.630;2024-03-02T10:55:06;6.68;;;3.95;;
77938;SDS011;67136;47.546;21.630;2024-03-02T10:58:11;7.93;;;4.62;;
77938;SDS011;67136;47.546;21.630;2024-03-02T11:01:15;5.57;;;4.00;;
77938;SDS011;67136;47.546;21.630;2024-03-02T11:04:18;10.10;;;3.42;;
77938;SDS011;67136;47.546;21.630;2024-03-02T11:07:21;8.40;;;3.47;;
77938;SDS011;67136;47.546;21.630;2024-03-02T11:10:26;10.77;;;4.03;;
77938;SDS011;67136;47.546;21.630;2024-03-02T11:13:33;8.40;;;3.30;;
77938;SDS011;67136;47.546;21.630;2024-03-02T11:16:40;6.55;;;3.28;;
77938;SDS011;67136;47.546;21.630;2024-03-02T11:19:44;6.03;;;3.30;;
77938;SDS011;67136;47.546;21.630;2024-03-02T11:22:47;5.87;;;3.20;;
77938;SDS011;67136;47.546;21.630;2024-03-02T11:25:50;7.03;;;3.17;;
77938;SDS011;67136;47.546;21.630;2024-03-02T11:28:52;4.10;;;2.80;;
77938;SDS011;67136;47.546;21.630;2024-03-02T11:31:59;5.43;;;3.12;;
77938;SDS011;67136;47.546;21.630;2024-03-02T11:35:02;5.07;;;2.70;;
77938;SDS011;67136;47.546;21.630;2024-03-02T11:38:06;6.00;;;2.67;;
77938;SDS011;67136;47.546;21.630;2024-03-02T11:41:09;5.32;;;2.67;;
77938;SDS011;67136;47.546;21.630;2024-03-02T11:44:12;5.68;;;2.80;;
77938;SDS011;67136;47.546;21.630;2024-03-02T11:47:15;5.68;;;2.90;;
77938;SDS011;67136;47.546;21.630;2024-03-02T11:50:30;6.17;;;3.17;;
77938;SDS011;67136;47.546;21.630;2024-03-02T11:53:35;5.90;;;3.37;;
77938;SDS011;67136;47.546;21.630;2024-03-02T11:56:42;5.97;;;3.45;;
77938;SDS011;67136;47.546;21.630;2024-03-02T11:59:45;9.15;;;3.15;;
77938;SDS011;67136;47.546;21.630;2024-03-02T12:02:59;8.98;;;3.83;;
77938;SDS011;67136;47.546;21.630;2024-03-02T12:06:09;4.70;;;3.00;;
77938;SDS011;67136;47.546;21.630;2024-03-02T12:09:11;6.27;;;3.20;;
77938;SDS011;67136;47.546;21.630;2024-03-02T12:12:17;7.47;;;2.85;;
77938;SDS011;67136;47.546;21.630;2024-03-02T12:15:32;5.15;;;3.10;;
77938;SDS011;67136;47.546;21.630;2024-03-02T12:18:36;7.70;;;3.37;;
77938;SDS011;67136;47.546;21.630;2024-03-02T12:21:38;9.60;;;3.40;;
77938;SDS011;67136;47.546;21.630;2024-03-02T12:24:42;4.73;;;2.77;;
77938;SDS011;67136;47.546;21.630;2024-03-02T12:27:47;6.97;;;2.97;;
77938;SDS011;67136;47.546;21.630;2024-03-02T12:30:52;5.25;;;3.20;;
77938;SDS011;67136;47.546;21.630;2024-03-02T12:33:55;6.28;;;3.50;;
77938;SDS011;67136;47.546;21.630;2024-03-02T12:36:58;5.43;;;3.50;;
77938;SDS011;67136;47.546;21.630;2024-03-02T12:40:00;6.07;;;3.40;;
77938;SDS011;67136;47.546;21.630;2024-03-02T12:43:04;5.57;;;3.15;;
77938;SDS011;67136;47.546;21.630;2024-03-02T12:46:08;5.12;;;2.90;;
77938;SDS011;67136;47.546;21.630;2024-03-02T12:49:11;7.28;;;2.90;;
77938;SDS011;67136;47.546;21.630;2024-03-02T12:52:15;5.57;;;3.10;;
77938;SDS011;67136;47.546;21.630;2024-03-02T12:55:22;5.87;;;3.00;;
77938;SDS011;67136;47.546;21.630;2024-03-02T12:58:28;4.70;;;2.97;;
77938;SDS011;67136;47.546;21.630;2024-03-02T13:01:33;5.90;;;2.90;;
77938;SDS011;67136;47.546;21.630;2024-03-02T13:04:36;4.25;;;2.87;;
77938;SDS011;67136;47.546;21.630;2024-03-02T13:07:42;5.50;;;3.20;;
77938;SDS011;67136;47.546;21.630;2024-03-02T13:10:48;4.33;;;2.97;;
77938;SDS011;67136;47.546;21.630;2024-03-02T13:13:51;5.25;;;3.20;;
77938;SDS011;67136;47.546;21.630;2024-03-02T13:16:54;6.30;;;3.10;;
77938;SDS011;67136;47.546;21.630;2024-03-02T13:19:57;6.25;;;3.10;;
77938;SDS011;67136;47.546;21.630;2024-03-02T13:23:01;6.45;;;3.08;;
77938;SDS011;67136;47.546;21.630;2024-03-02T13:26:03;4.87;;;2.87;;
77938;SDS011;67136;47.546;21.630;2024-03-02T13:29:09;6.22;;;3.30;;
77938;SDS011;67136;47.546;21.630;2024-03-02T13:32:12;9.02;;;3.28;;
77938;SDS011;67136;47.546;21.630;2024-03-02T13:35:15;5.68;;;3.58;;
77938;SDS011;67136;47.546;21.630;2024-03-02T13:38:18;5.18;;;3.42;;
77938;SDS011;67136;47.546;21.630;2024-03-02T13:41:22;6.83;;;3.07;;
77938;SDS011;67136;47.546;21.630;2024-03-02T13:44:25;7.07;;;3.60;;
77938;SDS011;67136;47.546;21.630;2024-03-02T13:47:27;7.07;;;3.90;;
77938;SDS011;67136;47.546;21.630;2024-03-02T13:50:31;5.25;;;3.33;;
77938;SDS011;67136;47.546;21.630;2024-03-02T13:53:35;7.17;;;3.80;;
77938;SDS011;67136;47.546;21.630;2024-03-02T13:56:38;5.90;;;3.40;;
77938;SDS011;67136;47.546;21.630;2024-03-02T13:59:44;6.03;;;3.78;;
77938;SDS011;67136;47.546;21.630;2024-03-02T14:02:47;6.75;;;4.03;;
77938;SDS011;67136;47.546;21.630;2024-03-02T14:05:52;6.22;;;3.60;;
77938;SDS011;67136;47.546;21.630;2024-03-02T14:08:55;6.70;;;3.70;;
77938;SDS011;67136;47.546;21.630;2024-03-02T14:11:58;6.87;;;3.50;;
77938;SDS011;67136;47.546;21.630;2024-03-02T14:15:02;10.57;;;3.95;;
77938;SDS011;67136;47.546;21.630;2024-03-02T14:18:06;8.15;;;3.70;;
77938;SDS011;67136;47.546;21.630;2024-03-02T14:21:08;5.90;;;3.42;;
77938;SDS011;67136;47.546;21.630;2024-03-02T14:24:11;6.23;;;4.00;;
77938;SDS011;67136;47.546;21.630;2024-03-02T14:27:17;10.83;;;4.60;;
77938;SDS011;67136;47.546;21.630;2024-03-02T14:30:39;6.18;;;3.95;;
77938;SDS011;67136;47.546;21.630;2024-03-02T14:33:41;7.82;;;3.90;;
77938;SDS011;67136;47.546;21.630;2024-03-02T14:36:46;11.23;;;4.12;;
77938;SDS011;67136;47.546;21.630;2024-03-02T14:39:49;6.67;;;3.73;;
77938;SDS011;67136;47.546;21.630;2024-03-02T14:42:54;9.67;;;4.03;;
77938;SDS011;67136;47.546;21.630;2024-03-02T14:45:57;6.95;;;3.75;;
77938;SDS011;67136;47.546;21.630;2024-03-02T14:49:01;7.18;;;3.72;;
77938;SDS011;67136;47.546;21.630;2024-03-02T14:52:04;13.15;;;4.82;;
77938;SDS011;67136;47.546;21.630;2024-03-02T14:55:07;11.53;;;4.53;;
77938;SDS011;67136;47.546;21.630;2024-03-02T14:58:10;8.40;;;4.40;;
77938;SDS011;67136;47.546;21.630;2024-03-02T15:01:13;5.85;;;4.25;;
77938;SDS011;67136;47.546;21.630;2024-03-02T15:04:16;11.32;;;5.10;;
77938;SDS011;67136;47.546;21.630;2024-03-02T15:07:23;8.88;;;4.53;;
77938;SDS011;67136;47.546;21.630;2024-03-02T15:10:26;13.10;;;5.70;;
77938;SDS011;67136;47.546;21.630;2024-03-02T15:13:29;11.03;;;5.00;;
77938;SDS011;67136;47.546;21.630;2024-03-02T15:16:32;9.52;;;5.30;;
77938;SDS011;67136;47.546;21.630;2024-03-02T15:19:35;9.35;;;5.10;;
77938;SDS011;67136;47.546;21.630;2024-03-02T15:22:37;12.65;;;6.35;;
77938;SDS011;67136;47.546;21.630;2024-03-02T15:25:40;12.17;;;5.67;;
77938;SDS011;67136;47.546;21.630;2024-03-02T15:28:43;9.43;;;5.63;;
77938;SDS011;67136;47.546;21.630;2024-03-02T15:31:45;10.25;;;5.10;;
77938;SDS011;67136;47.546;21.630;2024-03-02T15:34:48;9.82;;;4.80;;
77938;SDS011;67136;47.546;21.630;2024-03-02T15:37:54;8.40;;;4.60;;
77938;SDS011;67136;47.546;21.630;2024-03-02T15:40:56;8.17;;;4.33;;
77938;SDS011;67136;47.546;21.630;2024-03-02T15:44:04;14.17;;;4.57;;
77938;SDS011;67136;47.546;21.630;2024-03-02T15:47:08;6.78;;;4.03;;
77938;SDS011;67136;47.546;21.630;2024-03-02T15:50:11;9.27;;;4.22;;
77938;SDS011;67136;47.546;21.630;2024-03-02T15:53:15;9.00;;;4.70;;
77938;SDS011;67136;47.546;21.630;2024-03-02T15:56:17;9.63;;;4.47;;
77938;SDS011;67136;47.546;21.630;2024-03-02T15:59:20;7.80;;;4.27;;
77938;SDS011;67136;47.546;21.630;2024-03-02T16:02:23;10.02;;;4.87;;
77938;SDS011;67136;47.546;21.630;2024-03-02T16:05:25;8.82;;;4.62;;
77938;SDS011;67136;47.546;21.630;2024-03-02T16:08:28;8.88;;;5.07;;
77938;SDS011;67136;47.546;21.630;2024-03-02T16:11:31;11.33;;;4.20;;
77938;SDS011;67136;47.546;21.630;2024-03-02T16:14:34;11.40;;;4.80;;
77938;SDS011;67136;47.546;21.630;2024-03-02T16:17:40;9.27;;;4.55;;
77938;SDS011;67136;47.546;21.630;2024-03-02T16:20:42;9.13;;;4.53;;
77938;SDS011;67136;47.546;21.630;2024-03-02T16:23:45;7.20;;;4.35;;
77938;SDS011;67136;47.546;21.630;2024-03-02T16:26:48;12.27;;;4.43;;
77938;SDS011;67136;47.546;21.630;2024-03-02T16:29:51;11.77;;;4.87;;
77938;SDS011;67136;47.546;21.630;2024-03-02T16:32:53;10.98;;;5.07;;
77938;SDS011;67136;47.546;21.630;2024-03-02T16:35:55;10.85;;;4.87;;
77938;SDS011;67136;47.546;21.630;2024-03-02T16:38:58;9.13;;;4.93;;
77938;SDS011;67136;47.546;21.630;2024-03-02T16:42:01;9.07;;;4.53;;
77938;SDS011;67136;47.546;21.630;2024-03-02T16:45:04;7.63;;;4.83;;
77938;SDS011;67136;47.546;21.630;2024-03-02T16:48:07;7.87;;;5.12;;
77938;SDS011;67136;47.546;21.630;2024-03-02T16:51:10;9.40;;;5.53;;
77938;SDS011;67136;47.546;21.630;2024-03-02T16:54:13;9.98;;;5.40;;
77938;SDS011;67136;47.546;21.630;2024-03-02T16:57:15;10.90;;;5.17;;
77938;SDS011;67136;47.546;21.630;2024-03-02T17:00:21;10.77;;;4.90;;
77938;SDS011;67136;47.546;21.630;2024-03-02T17:03:24;10.50;;;4.95;;
77938;SDS011;67136;47.546;21.630;2024-03-02T17:06:27;10.52;;;5.07;;
77938;SDS011;67136;47.546;21.630;2024-03-02T17:09:30;10.98;;;5.00;;
77938;SDS011;67136;47.546;21.630;2024-03-02T17:12:33;10.80;;;4.97;;
77938;SDS011;67136;47.546;21.630;2024-03-02T17:15:36;10.37;;;5.00;;
77938;SDS011;67136;47.546;21.630;2024-03-02T17:18:39;10.13;;;5.25;;
77938;SDS011;67136;47.546;21.630;2024-03-02T17:21:42;8.65;;;5.22;;
77938;SDS011;67136;47.546;21.630;2024-03-02T17:24:45;8.48;;;5.45;;
77938;SDS011;67136;47.546;21.630;2024-03-02T17:27:48;9.10;;;5.23;;
77938;SDS011;67136;47.546;21.630;2024-03-02T17:30:51;10.17;;;5.50;;
77938;SDS011;67136;47.546;21.630;2024-03-02T17:33:54;10.48;;;5.50;;
77938;SDS011;67136;47.546;21.630;2024-03-02T17:36:58;10.13;;;4.97;;
77938;SDS011;67136;47.546;21.630;2024-03-02T17:40:00;13.82;;;5.40;;
77938;SDS011;67136;47.546;21.630;2024-03-02T17:43:03;11.73;;;5.20;;
77938;SDS011;67136;47.546;21.630;2024-03-02T17:46:06;10.30;;;5.87;;
77938;SDS011;67136;47.546;21.630;2024-03-02T17:49:09;18.02;;;10.35;;
77938;SDS011;67136;47.546;21.630;2024-03-02T17:52:12;16.45;;;7.37;;
77938;SDS011;67136;47.546;21.630;2024-03-02T17:55:15;13.48;;;7.62;;
77938;SDS011;67136;47.546;21.630;2024-03-02T17:58:18;13.77;;;6.67;;